Terminal Aerodrome Forecast
Issued by NWS

Home | Current Version | Previous Version | Graphics & Text | Print | Product List | Glossary On
Versions: 1 2 3 4 5 6 7 8 9 10 11 12 13 14
945
FTUS43 KTOP 180542
TAFMHK
TAF
KMHK 180542Z 1806/1906 02010KT 5SM BR OVC009
     FM180700 36020G30KT P6SM VCSH SCT008 OVC012
      TEMPO 1810/1814 5SM -RA BR
     FM181400 33020G29KT P6SM FEW050 SCT150
     FM182300 31005KT P6SM SKC=

USA.gov is the U.S. government's official web portal to all federal, state and local government web resources and services.